createdAt,value
2022-11-10T00:00:11.356Z,79.01
2022-11-10T00:01:12.877Z,78.46
2022-11-10T00:02:14.378Z,80.19
2022-11-10T00:03:16.009Z,81.10
2022-11-10T00:04:17.671Z,82.38
2022-11-10T00:05:19.329Z,83.17
2022-11-10T00:06:20.871Z,83.49
2022-11-10T00:07:26.431Z,83.93
2022-11-10T00:08:27.978Z,84.76
2022-11-10T00:09:29.821Z,84.76
2022-11-10T00:10:32.171Z,84.84
2022-11-10T00:11:33.776Z,84.68
2022-11-10T00:12:35.910Z,85.89
2022-11-10T00:13:58.194Z,85.33
2022-11-10T00:15:18.762Z,85.53
2022-11-10T00:16:38.506Z,85.62
2022-11-10T00:17:40.091Z,85.44
2022-11-10T00:18:41.622Z,84.82
2022-11-10T00:19:43.298Z,84.58
2022-11-10T00:20:44.819Z,84.84
2022-11-10T00:21:46.488Z,84.04
2022-11-10T00:22:48.019Z,84.31
2022-11-10T00:23:49.547Z,85.00
2022-11-10T00:24:51.232Z,84.33
2022-11-10T00:25:52.867Z,85.27
2022-11-10T00:26:55.136Z,84.11
2022-11-10T00:27:59.910Z,84.29
2022-11-10T00:29:01.520Z,84.01
2022-11-10T00:30:03.260Z,83.31
2022-11-10T00:31:06.060Z,83.96
2022-11-10T00:32:08.063Z,83.72
2022-11-10T00:33:09.618Z,82.94
2022-11-10T00:34:12.839Z,83.58
2022-11-10T00:35:14.481Z,83.18
2022-11-10T00:36:15.967Z,83.38
2022-11-10T00:37:17.536Z,83.74
2022-11-10T00:38:19.138Z,83.09
2022-11-10T00:39:20.660Z,82.84
2022-11-10T00:40:22.954Z,81.75
2022-11-10T00:41:24.502Z,82.06
2022-11-10T00:42:26.057Z,82.43
2022-11-10T00:43:29.384Z,81.26
2022-11-10T00:44:31.371Z,81.28
2022-11-10T00:45:33.012Z,80.06
2022-11-10T00:46:34.615Z,79.96
2022-11-10T00:47:36.330Z,79.00
2022-11-10T00:48:37.900Z,78.57
2022-11-10T00:49:39.566Z,78.36
2022-11-10T00:50:41.722Z,78.74
2022-11-10T00:51:43.329Z,77.77
2022-11-10T00:52:44.984Z,77.94
2022-11-10T00:53:46.534Z,77.48
2022-11-10T00:54:48.136Z,77.26
2022-11-10T00:55:50.403Z,77.99
2022-11-10T00:56:51.932Z,78.00
2022-11-10T00:57:53.455Z,78.01
2022-11-10T00:58:55.343Z,78.56
2022-11-10T00:59:56.879Z,77.85
2022-11-10T01:01:05.572Z,77.72
2022-11-10T01:02:07.201Z,77.59
2022-11-10T01:03:15.723Z,77.71
2022-11-10T01:04:17.265Z,76.66
2022-11-10T01:05:18.900Z,76.64
2022-11-10T01:06:21.844Z,76.63
2022-11-10T01:07:23.380Z,76.62
2022-11-10T01:08:25.271Z,77.60
2022-11-10T01:09:27.227Z,77.05
2022-11-10T01:10:28.954Z,77.69
2022-11-10T01:11:30.568Z,77.71
2022-11-10T01:12:32.139Z,77.31
2022-11-10T01:13:34.121Z,77.79
2022-11-10T01:14:35.689Z,77.98
2022-11-10T01:15:41.223Z,78.56
2022-11-10T01:16:42.810Z,77.40
2022-11-10T01:17:44.418Z,78.91
2022-11-10T01:18:51.163Z,78.38
2022-11-10T01:19:52.705Z,78.13
2022-11-10T01:20:54.219Z,78.34
2022-11-10T01:21:55.742Z,79.17
2022-11-10T01:22:57.264Z,79.39
2022-11-10T01:23:59.127Z,79.52
2022-11-10T01:25:00.819Z,78.99
2022-11-10T01:26:05.143Z,79.50
2022-11-10T01:27:06.719Z,79.83
2022-11-10T01:28:08.287Z,78.93
2022-11-10T01:29:09.803Z,78.85
2022-11-10T01:30:12.082Z,78.14
2022-11-10T01:31:16.079Z,79.14
2022-11-10T01:32:17.659Z,79.64
2022-11-10T01:33:19.434Z,79.80
2022-11-10T01:34:21.226Z,79.77
2022-11-10T01:35:22.807Z,80.47
2022-11-10T01:36:24.326Z,81.41
2022-11-10T01:37:25.865Z,82.34
2022-11-10T01:38:29.342Z,83.73
2022-11-10T01:39:30.893Z,83.90
2022-11-10T01:40:32.435Z,83.69
2022-11-10T01:41:34.049Z,84.04
2022-11-10T01:42:46.016Z,83.77
2022-11-10T01:43:47.541Z,84.35
2022-11-10T01:45:23.998Z,84.00
2022-11-10T01:46:26.306Z,83.53
2022-11-10T01:47:27.930Z,83.89
2022-11-10T01:48:52.795Z,84.27
2022-11-10T01:49:54.657Z,83.48
2022-11-10T01:51:10.082Z,84.03
2022-11-10T01:52:14.107Z,83.66
2022-11-10T01:53:23.254Z,83.77
2022-11-10T01:54:36.278Z,83.83
2022-11-10T01:55:41.486Z,83.76
2022-11-10T01:56:47.738Z,84.04
2022-11-10T01:57:49.346Z,84.26
2022-11-10T01:58:58.491Z,84.06
2022-11-10T02:00:00.382Z,84.24
2022-11-10T02:01:02.087Z,84.37
2022-11-10T02:02:14.109Z,83.92
2022-11-10T02:03:31.986Z,83.35
2022-11-10T02:04:34.966Z,83.09
2022-11-10T02:05:37.043Z,83.15
2022-11-10T02:06:41.883Z,82.93
2022-11-10T02:07:43.997Z,82.53
2022-11-10T02:08:46.279Z,81.82
2022-11-10T02:09:48.056Z,82.20
2022-11-10T02:10:49.564Z,81.90
2022-11-10T02:11:54.273Z,82.39
2022-11-10T02:12:55.803Z,81.88
2022-11-10T02:13:57.507Z,82.22
2022-11-10T02:14:59.318Z,81.96
2022-11-10T02:16:00.948Z,81.64
2022-11-10T02:17:02.592Z,81.59
2022-11-10T02:18:04.212Z,80.63
2022-11-10T02:19:25.076Z,80.95
2022-11-10T02:20:26.608Z,81.82
2022-11-10T02:21:28.139Z,81.88
2022-11-10T02:22:29.663Z,81.70
2022-11-10T02:23:31.231Z,82.07
2022-11-10T02:24:32.889Z,82.23
2022-11-10T02:25:34.789Z,82.22
2022-11-10T02:26:42.272Z,81.61
2022-11-10T02:27:43.860Z,82.42
2022-11-10T02:28:45.426Z,81.59
2022-11-10T02:29:47.081Z,82.33
2022-11-10T02:30:48.923Z,82.14
2022-11-10T02:31:50.519Z,83.60
2022-11-10T02:32:52.039Z,85.57
2022-11-10T02:33:53.567Z,86.18
2022-11-10T02:34:55.109Z,87.13
2022-11-10T02:35:56.941Z,87.32
2022-11-10T02:36:58.512Z,87.07
2022-11-10T02:38:00.153Z,87.08
2022-11-10T02:39:01.754Z,86.57
2022-11-10T02:40:03.750Z,86.31
2022-11-10T02:41:05.475Z,86.31
2022-11-10T02:42:10.460Z,86.19
2022-11-10T02:43:14.638Z,85.45
2022-11-10T02:44:16.319Z,85.77
2022-11-10T02:45:17.847Z,85.55
2022-11-10T02:46:19.383Z,84.65
2022-11-10T02:47:20.927Z,85.03
2022-11-10T02:48:22.511Z,84.48
2022-11-10T02:49:24.136Z,84.11
2022-11-10T02:50:25.658Z,84.72
2022-11-10T02:51:27.187Z,83.68
2022-11-10T02:52:28.724Z,84.28
2022-11-10T02:53:30.298Z,83.61
2022-11-10T02:54:31.837Z,83.05
2022-11-10T02:55:33.557Z,82.44
2022-11-10T02:56:35.535Z,82.89
2022-11-10T02:57:37.692Z,82.02
2022-11-10T02:58:39.192Z,81.92
2022-11-10T02:59:40.792Z,81.17
2022-11-10T03:00:42.336Z,81.69
2022-11-10T03:01:43.963Z,81.84
2022-11-10T03:02:45.775Z,81.87
2022-11-10T03:03:47.321Z,81.95
2022-11-10T03:04:48.831Z,81.11
2022-11-10T03:05:50.383Z,81.46
2022-11-10T03:06:51.926Z,81.25
2022-11-10T03:07:57.987Z,82.34
2022-11-10T03:08:59.799Z,81.52
2022-11-10T03:10:01.416Z,81.73
2022-11-10T03:11:02.994Z,82.14
2022-11-10T03:12:04.650Z,82.45
2022-11-10T03:13:06.245Z,81.99
2022-11-10T03:14:07.757Z,82.41
2022-11-10T03:15:09.810Z,82.00
2022-11-10T03:16:11.305Z,81.75
2022-11-10T03:17:12.908Z,80.97
2022-11-10T03:18:14.485Z,81.32
2022-11-10T03:19:16.118Z,80.60
2022-11-10T03:20:18.527Z,80.68
2022-11-10T03:21:20.076Z,81.95
2022-11-10T03:22:21.625Z,81.73
2022-11-10T03:23:23.311Z,81.31
2022-11-10T03:24:25.059Z,81.92
2022-11-10T03:25:26.588Z,81.85
2022-11-10T03:26:28.086Z,81.13
2022-11-10T03:27:29.624Z,81.79
2022-11-10T03:28:31.160Z,81.48
2022-11-10T03:29:32.772Z,81.41
2022-11-10T03:30:34.763Z,81.96
2022-11-10T03:31:36.306Z,81.81
2022-11-10T03:32:37.856Z,81.13
2022-11-10T03:33:39.381Z,81.28
2022-11-10T03:34:40.983Z,80.44
2022-11-10T03:35:42.651Z,80.78
2022-11-10T03:36:44.763Z,80.42
2022-11-10T03:37:46.279Z,81.35
2022-11-10T03:38:47.818Z,80.31
2022-11-10T03:39:49.544Z,81.19
2022-11-10T03:41:17.569Z,80.88
2022-11-10T03:42:12.623Z,81.41
2022-11-10T03:43:14.185Z,81.24
2022-11-10T03:44:15.750Z,81.98
2022-11-10T03:45:17.485Z,81.67
2022-11-10T03:46:19.233Z,82.01
2022-11-10T03:47:21.018Z,82.51
2022-11-10T03:48:22.656Z,83.41
2022-11-10T03:49:24.216Z,83.94
2022-11-10T03:50:25.772Z,83.67
2022-11-10T03:51:27.280Z,84.68
2022-11-10T03:52:28.800Z,84.65
2022-11-10T03:53:30.335Z,84.42
2022-11-10T03:54:31.896Z,85.52
2022-11-10T03:55:33.483Z,84.92
2022-11-10T03:56:35.362Z,84.52
2022-11-10T03:57:36.891Z,84.24
2022-11-10T03:58:38.383Z,84.87
2022-11-10T03:59:39.948Z,84.18
2022-11-10T04:00:41.538Z,85.34
2022-11-10T04:01:43.070Z,84.59
2022-11-10T04:02:44.680Z,84.98
2022-11-10T04:03:51.340Z,85.66
2022-11-10T04:05:12.697Z,84.99
2022-11-10T04:06:32.845Z,85.33
2022-11-10T04:07:53.164Z,85.86
2022-11-10T04:09:00.565Z,86.60
2022-11-10T04:10:02.088Z,88.03
2022-11-10T04:11:04.264Z,87.78
2022-11-10T04:12:25.164Z,88.42
2022-11-10T04:13:45.483Z,88.32
2022-11-10T04:15:05.780Z,89.41
2022-11-10T04:16:07.494Z,89.30
2022-11-10T04:17:09.700Z,89.38
2022-11-10T04:18:21.407Z,88.98
2022-11-10T04:19:23.025Z,88.61
2022-11-10T04:20:24.536Z,89.58
2022-11-10T04:21:26.089Z,89.02
2022-11-10T04:22:46.136Z,88.49
2022-11-10T04:23:47.647Z,89.17
2022-11-10T04:24:49.177Z,89.81
2022-11-10T04:26:09.544Z,90.87
2022-11-10T04:27:11.096Z,90.99
2022-11-10T04:28:12.606Z,90.80
2022-11-10T04:29:18.573Z,90.50
2022-11-10T04:30:20.176Z,91.74
2022-11-10T04:31:23.457Z,91.25
2022-11-10T04:32:25.168Z,90.73
2022-11-10T04:33:26.695Z,91.64
2022-11-10T04:34:28.219Z,91.15
2022-11-10T04:35:29.786Z,91.82
2022-11-10T04:36:32.772Z,91.72
2022-11-10T04:37:34.299Z,91.56
2022-11-10T04:38:36.079Z,91.41
2022-11-10T04:39:37.567Z,90.77
2022-11-10T04:40:39.063Z,91.01
2022-11-10T04:41:40.673Z,91.15
2022-11-10T04:42:42.367Z,90.14
2022-11-10T04:43:44.558Z,91.08
2022-11-10T04:44:46.115Z,90.44
2022-11-10T04:45:47.717Z,90.72
2022-11-10T04:46:49.563Z,90.26
2022-11-10T04:47:51.119Z,90.54
2022-11-10T04:48:54.210Z,90.71
2022-11-10T04:49:55.802Z,89.68
2022-11-10T04:50:57.486Z,89.51
2022-11-10T04:51:59.207Z,90.36
2022-11-10T04:53:00.870Z,89.27
2022-11-10T04:54:03.137Z,89.74
2022-11-10T04:55:05.034Z,89.74
2022-11-10T04:56:06.756Z,89.78
2022-11-10T04:57:08.266Z,89.33
2022-11-10T04:58:10.488Z,88.78
2022-11-10T04:59:12.026Z,89.00
2022-11-10T05:00:14.130Z,88.55
2022-11-10T05:01:21.298Z,89.02
2022-11-10T05:02:22.895Z,89.45
2022-11-10T05:03:26.554Z,90.03
2022-11-10T05:04:28.070Z,90.45
2022-11-10T05:05:29.690Z,90.53
2022-11-10T05:06:31.252Z,91.19
2022-11-10T05:07:32.881Z,91.48
2022-11-10T05:08:34.539Z,91.10
2022-11-10T05:09:36.121Z,91.21
2022-11-10T05:10:38.450Z,91.99
2022-11-10T05:11:39.962Z,91.13
2022-11-10T05:12:41.527Z,91.57
2022-11-10T05:13:44.534Z,91.21
2022-11-10T05:14:46.883Z,91.20
2022-11-10T05:15:48.541Z,92.54
2022-11-10T05:16:50.078Z,92.88
2022-11-10T05:17:53.374Z,92.95
2022-11-10T05:18:56.077Z,92.84
2022-11-10T05:19:57.646Z,92.85
2022-11-10T05:20:59.951Z,92.55
2022-11-10T05:22:01.571Z,92.52
2022-11-10T05:23:22.220Z,93.32
2022-11-10T05:24:24.055Z,92.96
2022-11-10T05:25:25.802Z,94.03
2022-11-10T05:26:27.316Z,93.63
2022-11-10T05:27:29.979Z,93.61
2022-11-10T05:28:31.613Z,94.03
2022-11-10T05:29:33.195Z,94.37
2022-11-10T05:30:35.663Z,93.93
2022-11-10T05:31:37.239Z,94.21
2022-11-10T05:32:38.818Z,94.51
2022-11-10T05:33:40.574Z,95.57
2022-11-10T05:34:42.121Z,95.34
2022-11-10T05:35:44.292Z,95.86
2022-11-10T05:36:45.929Z,96.63
2022-11-10T05:37:47.569Z,97.34
2022-11-10T05:38:49.104Z,97.36
2022-11-10T05:39:50.617Z,97.10
2022-11-10T05:40:52.484Z,96.42
2022-11-10T05:41:54.501Z,95.74
2022-11-10T05:42:56.206Z,95.61
2022-11-10T05:43:57.771Z,95.12
2022-11-10T05:44:59.311Z,94.43
2022-11-10T05:46:00.944Z,94.56
2022-11-10T05:47:02.906Z,93.73
2022-11-10T05:48:04.655Z,94.34
2022-11-10T05:49:06.199Z,94.27
2022-11-10T05:50:09.040Z,93.85
2022-11-10T05:51:10.574Z,93.22
2022-11-10T05:52:12.149Z,93.21
2022-11-10T05:53:13.773Z,93.53
2022-11-10T05:54:15.546Z,93.65
2022-11-10T05:55:19.697Z,93.57
2022-11-10T05:56:21.259Z,93.04
2022-11-10T05:57:22.805Z,92.34
2022-11-10T05:58:24.399Z,93.18
2022-11-10T05:59:25.922Z,95.23
2022-11-10T06:00:29.998Z,95.75
2022-11-10T06:01:31.550Z,95.90
2022-11-10T06:02:33.135Z,97.13
2022-11-10T06:03:34.734Z,97.01
2022-11-10T06:04:36.300Z,97.43
2022-11-10T06:05:37.943Z,96.84
2022-11-10T06:06:39.551Z,97.45
2022-11-10T06:07:41.121Z,96.84
2022-11-10T06:08:42.655Z,95.92
2022-11-10T06:09:44.403Z,95.45
2022-11-10T06:10:45.996Z,95.83
2022-11-10T06:11:47.488Z,95.96
2022-11-10T06:12:49.112Z,95.64
2022-11-10T06:13:50.632Z,95.28
2022-11-10T06:14:52.145Z,94.09
2022-11-10T06:15:53.714Z,94.28
2022-11-10T06:16:55.344Z,93.84
2022-11-10T06:17:57.250Z,93.97
2022-11-10T06:18:58.766Z,92.99
2022-11-10T06:20:00.247Z,93.24
2022-11-10T06:21:01.795Z,92.98
2022-11-10T06:22:07.525Z,92.44
2022-11-10T06:23:13.925Z,92.08
2022-11-10T06:24:15.580Z,92.44
2022-11-10T06:25:17.142Z,92.26
2022-11-10T06:26:18.911Z,90.57
2022-11-10T06:27:20.415Z,91.68
2022-11-10T06:28:21.986Z,91.94
2022-11-10T06:29:26.798Z,92.86
2022-11-10T06:30:30.659Z,93.47
2022-11-10T06:31:32.324Z,93.05
2022-11-10T06:32:35.137Z,93.94
2022-11-10T06:33:36.693Z,94.00
2022-11-10T06:34:41.411Z,94.54
2022-11-10T06:35:42.922Z,94.42
2022-11-10T06:36:44.439Z,94.72
2022-11-10T06:37:46.110Z,94.35
2022-11-10T06:38:47.916Z,94.81
2022-11-10T06:39:49.494Z,94.94
2022-11-10T06:40:51.032Z,95.43
2022-11-10T06:41:52.647Z,94.81
2022-11-10T06:42:54.588Z,95.79
2022-11-10T06:43:56.265Z,95.63
2022-11-10T06:44:57.807Z,96.59
2022-11-10T06:45:59.334Z,96.16
2022-11-10T06:47:00.893Z,95.77
2022-11-10T06:48:07.830Z,96.60
2022-11-10T06:49:09.370Z,95.95
2022-11-10T06:50:10.963Z,95.92
2022-11-10T06:51:12.540Z,95.82
2022-11-10T06:52:14.213Z,95.72
2022-11-10T06:53:17.109Z,95.09
2022-11-10T06:54:18.613Z,95.24
2022-11-10T06:55:20.611Z,95.63
2022-11-10T06:56:22.215Z,95.97
2022-11-10T06:57:23.735Z,95.39
2022-11-10T06:58:25.247Z,95.45
2022-11-10T06:59:26.800Z,95.47
2022-11-10T07:00:29.406Z,95.25
2022-11-10T07:01:31.067Z,94.52
2022-11-10T07:02:32.622Z,94.11
2022-11-10T07:03:38.870Z,94.09
2022-11-10T07:04:46.031Z,94.77
2022-11-10T07:05:47.570Z,94.91
2022-11-10T07:06:49.231Z,93.77
2022-11-10T07:07:51.791Z,93.78
2022-11-10T07:08:53.357Z,92.09
2022-11-10T07:09:54.886Z,93.16
2022-11-10T07:10:56.601Z,92.45
2022-11-10T07:11:58.164Z,92.48
2022-11-10T07:13:01.524Z,93.70
2022-11-10T07:14:03.120Z,92.85
2022-11-10T07:15:05.603Z,92.66
2022-11-10T07:16:08.339Z,91.69
2022-11-10T07:17:09.911Z,90.25
2022-11-10T07:18:11.579Z,90.92
2022-11-10T07:19:14.609Z,91.21
2022-11-10T07:20:16.323Z,91.72
2022-11-10T07:21:17.843Z,90.71
2022-11-10T07:22:19.418Z,91.13
2022-11-10T07:23:21.323Z,91.54
2022-11-10T07:24:23.232Z,89.97
2022-11-10T07:25:25.069Z,91.16
2022-11-10T07:26:26.681Z,90.87
2022-11-10T07:27:28.245Z,90.15
2022-11-10T07:28:29.877Z,90.02
2022-11-10T07:29:31.404Z,90.51
2022-11-10T07:30:34.796Z,89.85
2022-11-10T07:31:36.344Z,89.83
2022-11-10T07:32:37.871Z,89.88
2022-11-10T07:33:39.434Z,89.77
2022-11-10T07:34:40.965Z,90.60
2022-11-10T07:35:42.547Z,89.97
2022-11-10T07:36:44.124Z,90.13
2022-11-10T07:37:45.667Z,90.78
2022-11-10T07:38:47.503Z,91.62
2022-11-10T07:39:49.052Z,90.61
2022-11-10T07:40:52.147Z,90.66
2022-11-10T07:41:53.673Z,91.51
2022-11-10T07:42:55.249Z,91.03
2022-11-10T07:43:56.820Z,91.44
2022-11-10T07:44:58.319Z,91.89
2022-11-10T07:46:00.836Z,92.27
2022-11-10T07:47:02.411Z,91.40
2022-11-10T07:48:07.157Z,91.24
2022-11-10T07:49:08.797Z,90.81
2022-11-10T07:50:10.968Z,90.87
2022-11-10T07:51:12.606Z,91.34
2022-11-10T07:52:14.150Z,89.79
2022-11-10T07:53:17.676Z,90.60
2022-11-10T07:54:19.255Z,89.90
2022-11-10T07:55:21.861Z,89.54
2022-11-10T07:56:23.385Z,89.91
2022-11-10T07:57:24.942Z,89.87
2022-11-10T07:58:26.524Z,90.13
2022-11-10T07:59:28.190Z,90.70
2022-11-10T08:00:30.128Z,89.87
2022-11-10T08:01:31.723Z,89.61
2022-11-10T08:02:33.275Z,89.11
2022-11-10T08:03:34.843Z,89.64
2022-11-10T08:04:36.379Z,89.15
2022-11-10T08:05:38.408Z,89.18
2022-11-10T08:06:40.201Z,89.75
2022-11-10T08:07:42.011Z,89.03
2022-11-10T08:08:43.580Z,89.31
2022-11-10T08:09:45.154Z,88.78
2022-11-10T08:10:46.792Z,88.46
2022-11-10T08:11:48.351Z,88.58
2022-11-10T08:12:56.875Z,88.50
2022-11-10T08:13:58.391Z,88.24
2022-11-10T08:14:59.913Z,87.40
2022-11-10T08:16:01.462Z,88.96
2022-11-10T08:17:02.991Z,88.85
2022-11-10T08:18:19.280Z,88.46
2022-11-10T08:19:20.786Z,88.94
2022-11-10T08:20:22.601Z,88.43
2022-11-10T08:21:24.133Z,87.92
2022-11-10T08:22:25.672Z,88.90
2022-11-10T08:23:28.634Z,88.44
2022-11-10T08:24:30.160Z,88.61
2022-11-10T08:25:35.467Z,89.28
2022-11-10T08:26:37.319Z,89.52
2022-11-10T08:27:39.016Z,90.38
2022-11-10T08:28:40.710Z,90.90
2022-11-10T08:29:42.397Z,90.69
2022-11-10T08:30:47.002Z,89.28
2022-11-10T08:31:48.629Z,89.30
2022-11-10T08:32:50.231Z,89.53
2022-11-10T08:33:52.346Z,89.48
2022-11-10T08:34:53.876Z,90.67
2022-11-10T08:35:55.395Z,90.78
2022-11-10T08:36:56.965Z,90.28
2022-11-10T08:37:58.580Z,90.25
2022-11-10T08:39:00.182Z,89.84
2022-11-10T08:40:01.729Z,89.15
2022-11-10T08:41:03.524Z,89.51
2022-11-10T08:42:06.366Z,90.59
2022-11-10T08:43:08.496Z,90.95
2022-11-10T08:44:11.149Z,90.97
2022-11-10T08:45:13.577Z,90.99
2022-11-10T08:46:15.121Z,90.70
2022-11-10T08:47:16.652Z,90.76
2022-11-10T08:48:20.471Z,91.15
2022-11-10T08:49:22.031Z,90.50
2022-11-10T08:50:23.851Z,89.95
2022-11-10T08:51:25.574Z,90.49
2022-11-10T08:52:27.754Z,91.01
2022-11-10T08:53:29.368Z,90.33
2022-11-10T08:54:30.943Z,89.25
2022-11-10T08:55:32.803Z,90.57
2022-11-10T08:56:34.538Z,89.78
2022-11-10T08:57:36.058Z,89.46
2022-11-10T08:58:48.555Z,89.94
2022-11-10T08:59:54.421Z,89.90
2022-11-10T09:00:56.389Z,89.26
2022-11-10T09:01:58.079Z,89.27
2022-11-10T09:03:07.861Z,89.84
2022-11-10T09:04:09.489Z,89.86
2022-11-10T09:05:11.236Z,89.91
2022-11-10T09:06:12.856Z,90.31
2022-11-10T09:07:14.456Z,90.49
2022-11-10T09:08:17.076Z,91.08
2022-11-10T09:09:18.596Z,90.09
2022-11-10T09:10:20.129Z,90.31
2022-11-10T09:11:21.696Z,91.76
2022-11-10T09:12:23.245Z,92.61
2022-11-10T09:13:29.631Z,92.24
2022-11-10T09:14:31.929Z,91.87
2022-11-10T09:15:34.719Z,92.66
2022-11-10T09:16:36.444Z,92.86
2022-11-10T09:17:41.636Z,92.45
2022-11-10T09:18:43.165Z,92.74
2022-11-10T09:19:44.769Z,93.56
2022-11-10T09:20:46.443Z,94.09
2022-11-10T09:21:48.003Z,93.32
2022-11-10T09:22:49.591Z,94.06
2022-11-10T09:23:51.106Z,94.87
2022-11-10T09:24:52.653Z,96.12
2022-11-10T09:25:56.160Z,95.82
2022-11-10T09:26:57.688Z,95.92
2022-11-10T09:27:59.403Z,95.95
2022-11-10T09:29:00.952Z,96.36
2022-11-10T09:30:03.582Z,97.04
2022-11-10T09:31:05.145Z,96.69
2022-11-10T09:32:06.733Z,97.55
2022-11-10T09:33:08.691Z,96.95
2022-11-10T09:34:10.767Z,95.43
2022-11-10T09:35:13.624Z,96.43
2022-11-10T09:36:15.182Z,96.92
2022-11-10T09:37:16.692Z,97.26
2022-11-10T09:38:18.295Z,97.43
2022-11-10T09:39:19.989Z,97.36
2022-11-10T09:40:36.187Z,96.30
2022-11-10T09:41:43.813Z,95.19
2022-11-10T09:42:47.555Z,94.04
2022-11-10T09:44:10.994Z,91.96
2022-11-10T09:45:24.064Z,92.52
2022-11-10T09:46:46.111Z,92.26
2022-11-10T09:47:57.373Z,93.01
2022-11-10T09:49:10.269Z,93.82
2022-11-10T09:50:28.093Z,94.03
2022-11-10T09:51:35.629Z,93.59
2022-11-10T09:52:39.347Z,93.33
2022-11-10T09:53:50.629Z,92.27
2022-11-10T09:55:03.451Z,92.74
2022-11-10T09:56:07.145Z,93.22
2022-11-10T09:57:15.366Z,93.75
2022-11-10T09:58:18.546Z,94.12
2022-11-10T09:59:30.521Z,94.22
2022-11-10T10:00:34.822Z,93.58
2022-11-10T10:01:46.335Z,92.46
2022-11-10T10:02:59.392Z,91.97
2022-11-10T10:04:13.914Z,91.19
2022-11-10T10:05:30.620Z,89.36
2022-11-10T10:07:04.821Z,88.58
2022-11-10T10:08:04.848Z,88.95
2022-11-10T10:09:51.414Z,88.44
2022-11-10T10:11:37.004Z,87.26
2022-11-10T10:13:09.531Z,87.09
2022-11-10T10:14:32.867Z,86.44
2022-11-10T10:15:44.944Z,88.25
2022-11-10T10:17:00.665Z,88.63
2022-11-10T10:18:16.978Z,88.53
2022-11-10T10:19:23.951Z,88.12
2022-11-10T10:20:46.754Z,88.42
2022-11-10T10:22:25.408Z,87.23
2022-11-10T10:24:07.121Z,87.02
2022-11-10T10:25:02.236Z,88.96
2022-11-10T10:26:04.126Z,87.72
2022-11-10T10:27:11.596Z,87.53
2022-11-10T10:28:19.286Z,87.07
2022-11-10T10:29:30.892Z,86.65
2022-11-10T10:30:36.285Z,85.52
2022-11-10T10:31:43.710Z,84.72
2022-11-10T10:32:45.505Z,84.17
2022-11-10T10:33:47.656Z,83.31
2022-11-10T10:34:49.471Z,82.22
2022-11-10T10:35:51.079Z,82.14
2022-11-10T10:36:52.655Z,82.32
2022-11-10T10:37:57.640Z,82.02
2022-11-10T10:39:12.574Z,81.60
2022-11-10T10:40:23.697Z,81.46
2022-11-10T10:41:28.282Z,81.38
2022-11-10T10:42:32.646Z,81.60
2022-11-10T10:43:34.288Z,81.61
2022-11-10T10:44:36.165Z,81.58
2022-11-10T10:45:42.323Z,82.36
2022-11-10T10:47:10.024Z,84.05
2022-11-10T10:48:29.181Z,87.14
2022-11-10T10:49:33.805Z,85.70
2022-11-10T10:50:41.876Z,83.67
2022-11-10T10:51:43.527Z,83.04
2022-11-10T10:52:45.135Z,81.86
2022-11-10T10:53:48.179Z,81.84
2022-11-10T10:55:00.489Z,81.18
2022-11-10T10:56:15.725Z,81.51
2022-11-10T10:57:24.698Z,80.82
2022-11-10T10:58:28.784Z,81.40
2022-11-10T10:59:31.185Z,81.99
2022-11-10T11:00:33.521Z,83.46
2022-11-10T11:01:38.482Z,83.95
2022-11-10T11:02:40.159Z,84.36
2022-11-10T11:03:44.583Z,84.40
2022-11-10T11:04:46.184Z,84.06
2022-11-10T11:06:03.052Z,83.73
2022-11-10T11:07:19.249Z,83.53
2022-11-10T11:08:21.206Z,82.98
2022-11-10T11:09:27.949Z,83.88
2022-11-10T11:10:35.499Z,84.29
2022-11-10T11:11:40.680Z,83.98
2022-11-10T11:12:42.210Z,84.29
2022-11-10T11:13:43.769Z,85.07
2022-11-10T11:14:46.301Z,84.08
2022-11-10T11:16:02.745Z,83.48
2022-11-10T11:17:19.732Z,83.53
2022-11-10T11:18:22.296Z,83.41
2022-11-10T11:19:27.654Z,83.75
2022-11-10T11:20:38.526Z,85.17
2022-11-10T11:22:18.545Z,84.40
2022-11-10T11:23:58.427Z,83.58
2022-11-10T11:25:08.807Z,83.55
2022-11-10T11:26:44.385Z,82.35
2022-11-10T11:28:16.867Z,82.71
2022-11-10T11:29:41.757Z,81.93
2022-11-10T11:31:02.634Z,82.65
2022-11-10T11:32:41.475Z,82.01
2022-11-10T11:34:00.809Z,82.28
2022-11-10T11:35:24.533Z,81.43
2022-11-10T11:36:32.034Z,80.92
2022-11-10T11:37:56.557Z,81.14
2022-11-10T11:39:06.440Z,80.78
2022-11-10T11:40:28.889Z,81.23
2022-11-10T11:42:23.190Z,81.17
2022-11-10T11:43:39.516Z,81.25
2022-11-10T11:45:18.754Z,81.02
2022-11-10T11:46:49.392Z,80.71
2022-11-10T11:48:06.188Z,80.74
2022-11-10T11:49:34.519Z,80.34
2022-11-10T11:50:54.955Z,80.39
2022-11-10T11:52:19.607Z,79.75
2022-11-10T11:53:23.784Z,80.05
2022-11-10T11:54:52.365Z,79.82
2022-11-10T11:56:25.933Z,79.80
2022-11-10T11:57:46.328Z,80.26
2022-11-10T11:58:56.768Z,80.69
2022-11-10T12:00:12.681Z,80.84
2022-11-10T12:01:29.472Z,80.73
2022-11-10T12:02:42.936Z,80.20
2022-11-10T12:04:35.472Z,79.71
2022-11-10T12:06:24.087Z,81.42
2022-11-10T12:07:55.354Z,81.53
2022-11-10T12:09:33.927Z,81.28
2022-11-10T12:10:43.739Z,80.92
2022-11-10T12:12:04.316Z,80.46
2022-11-10T12:13:44.136Z,80.51
2022-11-10T12:15:00.850Z,80.21
2022-11-10T12:16:09.603Z,79.43
2022-11-10T12:17:28.310Z,79.96
2022-11-10T12:18:30.438Z,79.20
2022-11-10T12:20:16.738Z,79.34
2022-11-10T12:21:35.115Z,78.90
2022-11-10T12:22:51.517Z,79.57
2022-11-10T12:23:59.139Z,79.21
2022-11-10T12:25:19.441Z,79.85
2022-11-10T12:26:27.609Z,80.46
2022-11-10T12:27:35.708Z,80.51
2022-11-10T12:28:47.604Z,80.71
2022-11-10T12:30:06.179Z,80.10
2022-11-10T12:31:15.435Z,79.93
2022-11-10T12:32:32.376Z,79.85
2022-11-10T12:33:50.729Z,79.66
2022-11-10T12:35:18.685Z,79.38
2022-11-10T12:36:22.274Z,79.22
2022-11-10T12:37:33.876Z,79.27
2022-11-10T12:39:03.488Z,78.75
2022-11-10T12:40:13.046Z,77.75
2022-11-10T12:41:16.800Z,77.49
2022-11-10T12:42:22.314Z,77.08
2022-11-10T12:43:39.916Z,77.29
2022-11-10T12:45:05.501Z,78.10
2022-11-10T12:46:12.058Z,78.48
2022-11-10T12:47:20.493Z,79.78
2022-11-10T12:48:23.769Z,78.97
2022-11-10T12:49:35.895Z,78.99
2022-11-10T12:50:40.355Z,78.87
2022-11-10T12:52:09.173Z,79.47
2022-11-10T12:53:16.779Z,78.75
2022-11-10T12:54:20.674Z,78.58
2022-11-10T12:55:38.734Z,77.95
2022-11-10T12:56:49.444Z,78.04
2022-11-10T12:57:51.479Z,78.07
2022-11-10T12:59:21.044Z,77.90
2022-11-10T13:00:28.398Z,77.40
2022-11-10T13:01:30.450Z,76.65
2022-11-10T13:02:40.303Z,77.57
2022-11-10T13:03:55.676Z,77.03
2022-11-10T13:05:15.459Z,76.27
2022-11-10T13:06:35.839Z,77.10
2022-11-10T13:07:37.729Z,77.59
2022-11-10T13:08:41.874Z,77.48
2022-11-10T13:09:44.636Z,76.80
2022-11-10T13:11:00.397Z,76.77
2022-11-10T13:12:10.716Z,76.94
2022-11-10T13:13:17.077Z,76.54
2022-11-10T13:14:26.017Z,77.97
2022-11-10T13:15:52.904Z,79.10
2022-11-10T13:16:56.230Z,78.32
2022-11-10T13:17:57.978Z,78.19
2022-11-10T13:18:59.696Z,77.87
2022-11-10T13:20:20.752Z,77.80
2022-11-10T13:22:04.833Z,78.20
2022-11-10T13:23:29.524Z,77.23
2022-11-10T13:24:38.399Z,77.45
2022-11-10T13:25:51.355Z,77.34
2022-11-10T13:26:55.501Z,77.44
2022-11-10T13:27:57.139Z,77.51
2022-11-10T13:29:00.959Z,76.92
2022-11-10T13:30:02.662Z,77.80
2022-11-10T13:31:29.306Z,78.21
2022-11-10T13:32:33.467Z,77.95
2022-11-10T13:33:37.520Z,77.56
2022-11-10T13:34:43.797Z,76.76
2022-11-10T13:35:54.950Z,76.38
2022-11-10T13:36:57.309Z,76.17
2022-11-10T13:37:59.336Z,75.94
2022-11-10T13:39:24.393Z,76.12
2022-11-10T13:40:26.012Z,75.33
2022-11-10T13:41:27.916Z,75.34
2022-11-10T13:42:29.905Z,75.26
2022-11-10T13:43:32.003Z,75.48
2022-11-10T13:44:37.503Z,76.28
2022-11-10T13:45:44.959Z,76.42
2022-11-10T13:47:09.739Z,77.44
2022-11-10T13:48:11.284Z,77.55
2022-11-10T13:49:28.821Z,77.31
2022-11-10T13:50:55.358Z,78.31
2022-11-10T13:52:09.187Z,77.93
2022-11-10T13:53:41.670Z,77.07
2022-11-10T13:55:15.784Z,76.88
2022-11-10T13:57:00.912Z,77.75
2022-11-10T13:58:08.331Z,77.31
2022-11-10T13:59:24.071Z,77.21
2022-11-10T14:00:29.532Z,76.93
2022-11-10T14:01:31.090Z,77.79
2022-11-10T14:02:41.756Z,77.12
2022-11-10T14:03:46.423Z,77.74
2022-11-10T14:04:48.931Z,77.75
2022-11-10T14:06:03.684Z,78.66
2022-11-10T14:07:15.407Z,78.94
2022-11-10T14:08:25.276Z,78.91
2022-11-10T14:09:31.585Z,78.09